createdAt,value
2023-04-27T00:01:13.376Z,7.01
2023-04-27T00:03:41.342Z,7.16
2023-04-27T00:06:09.815Z,6.98
2023-04-27T00:08:36.726Z,7.30
2023-04-27T00:11:03.583Z,7.15
2023-04-27T00:13:30.500Z,7.18
2023-04-27T00:15:56.961Z,7.08
2023-04-27T00:18:23.374Z,7.37
2023-04-27T00:20:50.090Z,7.37
2023-04-27T00:23:16.800Z,7.15
2023-04-27T00:25:43.288Z,6.81
2023-04-27T00:28:09.886Z,7.41
2023-04-27T00:30:36.368Z,7.61
2023-04-27T00:33:02.892Z,7.58
2023-04-27T00:35:29.655Z,7.25
2023-04-27T00:37:56.372Z,7.08
2023-04-27T00:40:22.872Z,7.34
2023-04-27T00:42:49.442Z,7.28
2023-04-27T00:45:15.986Z,7.47
2023-04-27T00:47:43.318Z,7.19
2023-04-27T00:50:11.933Z,7.62
2023-04-27T00:52:39.682Z,7.06
2023-04-27T00:55:07.222Z,6.95
2023-04-27T00:57:34.248Z,6.81
2023-04-27T01:00:02.146Z,7.08
2023-04-27T01:02:30.293Z,7.44
2023-04-27T01:04:57.525Z,7.35
2023-04-27T01:07:26.724Z,7.24
2023-04-27T01:09:53.222Z,7.71
2023-04-27T01:12:19.794Z,7.62
2023-04-27T01:14:46.309Z,7.22
2023-04-27T01:17:13.985Z,7.60
2023-04-27T01:19:40.535Z,7.73
2023-04-27T01:22:07.213Z,7.65
2023-04-27T01:24:33.890Z,7.80
2023-04-27T01:27:01.592Z,7.38
2023-04-27T01:29:28.379Z,7.65
2023-04-27T01:31:54.901Z,7.25
2023-04-27T01:34:21.677Z,7.75
2023-04-27T01:36:48.199Z,7.72
2023-04-27T01:39:15.323Z,7.60
2023-04-27T01:41:42.084Z,8.06
2023-04-27T01:44:08.686Z,7.37
2023-04-27T01:46:35.255Z,7.64
2023-04-27T01:49:01.835Z,7.14
2023-04-27T01:51:28.374Z,7.38
2023-04-27T01:53:54.892Z,6.79
2023-04-27T01:56:21.376Z,7.25
2023-04-27T01:58:47.883Z,7.01
2023-04-27T02:01:14.444Z,7.19
2023-04-27T02:03:41.778Z,7.44
2023-04-27T02:06:08.436Z,7.84
2023-04-27T02:08:35.039Z,7.60
2023-04-27T02:11:01.572Z,7.42
2023-04-27T02:13:28.013Z,7.58
2023-04-27T02:15:56.049Z,7.40
2023-04-27T02:18:22.995Z,7.70
2023-04-27T02:20:49.786Z,7.77
2023-04-27T02:23:16.272Z,7.46
2023-04-27T02:25:46.463Z,7.22
2023-04-27T02:28:14.261Z,8.05
2023-04-27T02:30:41.316Z,8.82
2023-04-27T02:33:08.085Z,8.91
2023-04-27T02:35:34.797Z,8.56
2023-04-27T02:38:01.566Z,8.12
2023-04-27T02:40:28.277Z,7.83
2023-04-27T02:42:54.742Z,8.52
2023-04-27T02:45:21.218Z,7.96
2023-04-27T02:47:47.791Z,8.26
2023-04-27T02:50:14.387Z,7.97
2023-04-27T02:52:40.833Z,7.99
2023-04-27T02:55:07.698Z,7.94
2023-04-27T02:57:34.240Z,7.70
2023-04-27T03:00:00.828Z,7.82
2023-04-27T03:02:30.625Z,7.89
2023-04-27T03:04:59.162Z,8.05
2023-04-27T03:07:25.755Z,8.01
2023-04-27T03:09:52.193Z,8.22
2023-04-27T03:12:18.721Z,8.01
2023-04-27T03:14:45.232Z,8.10
2023-04-27T03:17:11.697Z,8.30
2023-04-27T03:19:38.214Z,7.98
2023-04-27T03:22:04.694Z,7.63
2023-04-27T03:24:31.138Z,7.92
2023-04-27T03:26:57.644Z,7.98
2023-04-27T03:29:24.110Z,7.77
2023-04-27T03:31:50.748Z,8.67
2023-04-27T03:34:17.630Z,8.43
2023-04-27T03:36:44.133Z,8.18
2023-04-27T03:39:10.783Z,8.39
2023-04-27T03:41:37.377Z,8.19
2023-04-27T03:44:04.180Z,8.23
2023-04-27T03:46:33.316Z,7.91
2023-04-27T03:48:59.956Z,8.97
2023-04-27T03:51:26.995Z,8.54
2023-04-27T03:53:53.440Z,8.23
2023-04-27T03:56:19.918Z,8.51
2023-04-27T03:58:46.768Z,8.50
2023-04-27T04:01:14.735Z,8.44
2023-04-27T04:03:41.472Z,8.17
2023-04-27T04:06:08.288Z,8.79
2023-04-27T04:08:34.781Z,8.46
2023-04-27T04:11:01.489Z,8.71
2023-04-27T04:13:27.935Z,8.22
2023-04-27T04:16:05.153Z,8.36
2023-04-27T04:18:32.227Z,8.62
2023-04-27T04:20:58.777Z,8.00
2023-04-27T04:23:25.850Z,8.15
2023-04-27T04:25:52.653Z,8.50
2023-04-27T04:28:19.130Z,8.55
2023-04-27T04:30:45.685Z,8.36
2023-04-27T04:33:12.206Z,8.83
2023-04-27T04:35:41.580Z,8.31
2023-04-27T04:38:10.078Z,8.71
2023-04-27T04:40:39.870Z,11.78
2023-04-27T04:43:06.743Z,16.22
2023-04-27T04:45:33.378Z,13.99
2023-04-27T04:48:02.198Z,11.84
2023-04-27T04:50:29.101Z,11.07
2023-04-27T04:52:55.894Z,11.26
2023-04-27T04:55:22.435Z,11.30
2023-04-27T04:57:48.857Z,11.64
2023-04-27T05:00:15.846Z,10.09
2023-04-27T05:02:42.854Z,9.94
2023-04-27T05:05:10.384Z,11.68
2023-04-27T05:07:36.934Z,12.98
2023-04-27T05:10:07.140Z,11.59
2023-04-27T05:12:33.611Z,10.76
2023-04-27T05:15:00.090Z,10.15
2023-04-27T05:17:26.982Z,8.65
2023-04-27T05:19:53.827Z,8.86
2023-04-27T05:22:22.174Z,8.71
2023-04-27T05:24:48.738Z,8.97
2023-04-27T05:27:15.509Z,8.45
2023-04-27T05:29:42.221Z,8.48
2023-04-27T05:32:09.658Z,8.46
2023-04-27T05:34:37.533Z,8.64
2023-04-27T05:37:03.998Z,8.59
2023-04-27T05:39:30.542Z,8.82
2023-04-27T05:41:57.441Z,8.82
2023-04-27T05:44:28.194Z,8.75
2023-04-27T05:46:55.728Z,8.68
2023-04-27T05:49:22.351Z,9.29
2023-04-27T05:51:48.906Z,8.75
2023-04-27T05:54:15.430Z,9.12
2023-04-27T05:56:50.715Z,9.34
2023-04-27T05:59:17.239Z,9.56
2023-04-27T06:01:43.705Z,9.34
2023-04-27T06:04:10.585Z,8.88
2023-04-27T06:06:37.297Z,9.33
2023-04-27T06:09:04.121Z,9.60
2023-04-27T06:11:30.613Z,9.48
2023-04-27T06:13:57.093Z,8.55
2023-04-27T06:16:23.681Z,8.95
2023-04-27T06:18:51.089Z,9.05
2023-04-27T06:21:21.537Z,9.19
2023-04-27T06:23:48.183Z,8.80
2023-04-27T06:26:17.268Z,8.58
2023-04-27T06:28:45.960Z,8.82
2023-04-27T06:31:13.867Z,8.94
2023-04-27T06:33:40.352Z,8.62
2023-04-27T06:36:07.300Z,8.18
2023-04-27T06:38:33.778Z,9.14
2023-04-27T06:41:00.442Z,9.12
2023-04-27T06:43:26.950Z,8.24
2023-04-27T06:45:53.496Z,7.76
2023-04-27T06:48:20.228Z,7.94
2023-04-27T06:50:47.314Z,8.38
2023-04-27T06:53:13.794Z,8.31
2023-04-27T06:55:46.176Z,8.44
2023-04-27T06:58:14.280Z,8.11
2023-04-27T07:00:40.954Z,7.78
2023-04-27T07:03:07.596Z,7.74
2023-04-27T07:05:34.287Z,8.21
2023-04-27T07:08:04.630Z,7.84
2023-04-27T07:10:33.700Z,7.91
2023-04-27T07:13:00.231Z,8.14
2023-04-27T07:15:26.937Z,8.05
2023-04-27T07:17:54.671Z,8.15
2023-04-27T07:20:21.595Z,8.08
2023-04-27T07:22:49.153Z,7.64
2023-04-27T07:25:15.797Z,7.73
2023-04-27T07:27:42.827Z,7.86
2023-04-27T07:30:13.069Z,7.90
2023-04-27T07:32:42.431Z,7.37
2023-04-27T07:35:10.135Z,7.46
2023-04-27T07:37:38.399Z,7.35
2023-04-27T07:40:14.298Z,7.59
2023-04-27T07:42:42.012Z,7.90
2023-04-27T07:45:10.125Z,7.84
2023-04-27T07:47:37.071Z,7.82
2023-04-27T07:50:04.723Z,7.81
2023-04-27T07:52:31.211Z,7.62
2023-04-27T07:54:57.677Z,7.53
2023-04-27T07:57:27.254Z,7.82
2023-04-27T07:59:53.833Z,7.26
2023-04-27T08:02:20.600Z,7.51
2023-04-27T08:04:48.916Z,7.65
2023-04-27T08:07:17.598Z,7.41
2023-04-27T08:09:44.507Z,7.68
2023-04-27T08:12:10.966Z,7.85
2023-04-27T08:14:37.542Z,7.29
2023-04-27T08:17:04.130Z,7.31
2023-04-27T08:19:30.701Z,7.24
2023-04-27T08:21:57.234Z,7.27
2023-04-27T08:24:23.783Z,6.79
2023-04-27T08:26:50.274Z,7.17
2023-04-27T08:29:27.173Z,7.36
2023-04-27T08:32:01.162Z,7.09
2023-04-27T08:34:29.080Z,7.05
2023-04-27T08:36:56.816Z,7.45
2023-04-27T08:39:24.910Z,6.86
2023-04-27T08:41:51.597Z,7.04
2023-04-27T08:44:18.414Z,6.76
2023-04-27T08:46:45.449Z,6.81
2023-04-27T08:49:13.632Z,6.90
2023-04-27T08:51:43.169Z,6.77
2023-04-27T08:54:09.868Z,6.24
2023-04-27T08:56:36.568Z,5.79
2023-04-27T08:59:16.520Z,5.94
2023-04-27T09:01:48.471Z,6.95
2023-04-27T09:04:17.620Z,6.83
2023-04-27T09:06:44.551Z,6.46
2023-04-27T09:09:23.449Z,6.71
2023-04-27T09:11:52.811Z,6.64
2023-04-27T09:14:23.845Z,6.33
2023-04-27T09:16:57.902Z,6.59
2023-04-27T09:19:27.817Z,6.54
2023-04-27T09:22:11.746Z,6.68
2023-04-27T09:24:38.440Z,6.56
2023-04-27T09:27:07.130Z,6.54
2023-04-27T09:29:37.710Z,6.63
2023-04-27T09:32:21.424Z,6.31
2023-04-27T09:34:48.031Z,6.68
2023-04-27T09:37:15.582Z,6.78
2023-04-27T09:39:43.271Z,6.85
2023-04-27T09:42:13.075Z,6.87
2023-04-27T09:44:39.756Z,6.77
2023-04-27T09:47:07.317Z,6.52
2023-04-27T09:49:34.795Z,6.19
2023-04-27T09:52:02.208Z,6.44
2023-04-27T09:54:34.473Z,6.93
2023-04-27T09:57:36.537Z,6.99
2023-04-27T10:00:20.559Z,6.97
2023-04-27T10:03:07.857Z,7.06
2023-04-27T10:06:17.320Z,6.94
2023-04-27T10:08:45.390Z,6.82
2023-04-27T10:11:15.970Z,6.38
2023-04-27T10:13:54.682Z,6.84
2023-04-27T10:16:22.463Z,7.21
2023-04-27T10:19:02.797Z,7.04
2023-04-27T10:21:30.660Z,6.55
2023-04-27T10:24:08.847Z,6.88
2023-04-27T10:26:38.011Z,6.45
2023-04-27T10:29:09.039Z,7.02
2023-04-27T10:31:36.097Z,7.20
2023-04-27T10:34:17.994Z,6.97
2023-04-27T10:36:45.818Z,7.10
2023-04-27T10:39:47.768Z,7.63
2023-04-27T10:42:28.878Z,7.98
2023-04-27T10:44:58.401Z,7.48
2023-04-27T10:47:41.741Z,7.88
2023-04-27T10:50:11.954Z,7.92
2023-04-27T10:52:43.776Z,7.50
2023-04-27T10:55:21.144Z,7.09
2023-04-27T10:57:48.073Z,7.22
2023-04-27T11:00:22.646Z,7.32
2023-04-27T11:02:49.473Z,6.78
2023-04-27T11:05:25.236Z,6.98
2023-04-27T11:07:53.600Z,7.00
2023-04-27T11:10:21.157Z,7.07
2023-04-27T11:12:47.752Z,6.70
2023-04-27T11:15:14.432Z,6.72
2023-04-27T11:17:41.761Z,6.56
2023-04-27T11:20:09.558Z,6.85
2023-04-27T11:22:46.183Z,6.58
2023-04-27T11:25:13.102Z,6.13
2023-04-27T11:27:41.988Z,6.31
2023-04-27T11:30:22.727Z,5.83
2023-04-27T11:32:50.688Z,5.64
2023-04-27T11:35:18.315Z,5.89
2023-04-27T11:37:45.056Z,5.45
2023-04-27T11:40:14.128Z,5.59
2023-04-27T11:42:43.551Z,6.22
2023-04-27T11:45:13.115Z,5.93
2023-04-27T11:47:46.451Z,6.03
2023-04-27T11:50:13.044Z,5.41
2023-04-27T11:52:40.784Z,5.29
2023-04-27T11:55:10.665Z,5.80
2023-04-27T11:57:38.490Z,5.82
2023-04-27T12:00:11.114Z,5.69
2023-04-27T12:02:38.928Z,5.51
2023-04-27T12:05:07.662Z,6.11
2023-04-27T12:07:34.337Z,6.19
2023-04-27T12:10:01.339Z,5.93
2023-04-27T12:12:28.248Z,6.43
2023-04-27T12:14:54.754Z,6.26
2023-04-27T12:17:21.495Z,5.82
2023-04-27T12:19:47.982Z,5.48
2023-04-27T12:22:19.786Z,5.62
2023-04-27T12:24:46.360Z,5.54
2023-04-27T12:27:13.001Z,5.36
2023-04-27T12:29:39.747Z,5.39
2023-04-27T12:32:06.564Z,5.25
2023-04-27T12:34:33.301Z,5.06
2023-04-27T12:36:59.809Z,4.89
2023-04-27T12:39:26.769Z,5.00
2023-04-27T12:41:54.259Z,5.21
2023-04-27T12:44:21.870Z,5.71
2023-04-27T12:46:48.839Z,5.23
2023-04-27T12:49:16.837Z,5.58
2023-04-27T12:51:43.977Z,5.27
2023-04-27T12:54:12.839Z,5.75
2023-04-27T12:56:40.861Z,5.32
2023-04-27T12:59:07.578Z,5.62
2023-04-27T13:01:34.526Z,5.51
2023-04-27T13:04:06.432Z,5.49
2023-04-27T13:06:33.612Z,5.15
2023-04-27T13:09:00.501Z,5.41
2023-04-27T13:11:27.256Z,4.94
2023-04-27T13:13:54.935Z,4.88
2023-04-27T13:16:22.598Z,4.84
2023-04-27T13:18:49.482Z,4.53
2023-04-27T13:21:17.005Z,4.64
2023-04-27T13:23:43.486Z,5.11
2023-04-27T13:26:09.932Z,5.10
2023-04-27T13:28:36.573Z,5.28
2023-04-27T13:31:08.722Z,5.40
2023-04-27T13:33:43.449Z,6.13
2023-04-27T13:36:12.576Z,4.85
2023-04-27T13:38:39.506Z,5.32
2023-04-27T13:41:06.742Z,5.14
2023-04-27T13:43:33.604Z,6.53
2023-04-27T13:46:02.478Z,4.97
2023-04-27T13:48:30.818Z,4.91
2023-04-27T13:50:58.208Z,5.30
2023-04-27T13:53:26.410Z,4.65
2023-04-27T13:55:55.310Z,4.59
2023-04-27T13:58:25.767Z,4.66
2023-04-27T14:00:53.370Z,4.80
2023-04-27T14:03:20.530Z,4.47
2023-04-27T14:05:48.790Z,4.75
2023-04-27T14:08:15.282Z,4.87
2023-04-27T14:10:42.019Z,4.93
2023-04-27T14:13:08.591Z,5.76
2023-04-27T14:15:37.050Z,4.69
2023-04-27T14:18:06.174Z,4.58
2023-04-27T14:20:34.927Z,4.78
2023-04-27T14:23:04.633Z,4.92
2023-04-27T14:25:34.512Z,5.02
2023-04-27T14:28:04.906Z,4.60
2023-04-27T14:30:32.643Z,4.83
2023-04-27T14:32:59.319Z,4.66
2023-04-27T14:35:26.122Z,4.67
2023-04-27T14:37:53.107Z,5.05
2023-04-27T14:40:20.128Z,5.10
2023-04-27T14:42:47.048Z,4.65
2023-04-27T14:45:22.944Z,5.03
2023-04-27T14:47:50.818Z,4.65
2023-04-27T14:50:17.686Z,4.83
2023-04-27T14:52:44.919Z,4.65
2023-04-27T14:55:13.623Z,4.40
2023-04-27T14:57:40.124Z,5.21
2023-04-27T15:00:09.811Z,5.40
2023-04-27T15:02:38.075Z,5.53
2023-04-27T15:05:05.995Z,5.19
2023-04-27T15:07:32.868Z,5.23
2023-04-27T15:09:59.415Z,5.23
2023-04-27T15:12:26.181Z,5.19
2023-04-27T15:14:53.945Z,5.30
2023-04-27T15:17:20.571Z,5.44
2023-04-27T15:19:47.151Z,5.04
2023-04-27T15:22:16.322Z,5.41
2023-04-27T15:24:42.788Z,5.17
2023-04-27T15:27:10.087Z,5.20
2023-04-27T15:29:37.014Z,5.46
2023-04-27T15:32:04.176Z,5.02
2023-04-27T15:34:31.066Z,4.90
2023-04-27T15:36:59.692Z,4.74
2023-04-27T15:39:27.271Z,5.12
2023-04-27T15:41:53.773Z,5.00
2023-04-27T15:44:20.328Z,4.83
2023-04-27T15:46:47.249Z,4.91
2023-04-27T15:49:14.455Z,4.81
2023-04-27T15:51:41.209Z,4.85
2023-04-27T15:54:07.686Z,5.13
2023-04-27T15:56:34.152Z,4.95
2023-04-27T15:59:00.658Z,4.74
2023-04-27T16:01:27.460Z,5.06
2023-04-27T16:03:54.393Z,4.92
2023-04-27T16:06:21.311Z,4.92
2023-04-27T16:08:47.988Z,4.94
2023-04-27T16:11:14.463Z,5.34
2023-04-27T16:13:41.066Z,5.08
2023-04-27T16:16:08.727Z,5.11
2023-04-27T16:18:35.967Z,5.14
2023-04-27T16:21:02.498Z,4.74
2023-04-27T16:23:29.090Z,5.03
2023-04-27T16:25:55.594Z,4.92
2023-04-27T16:28:22.064Z,5.07
2023-04-27T16:30:49.486Z,5.19
2023-04-27T16:33:16.236Z,4.80
2023-04-27T16:35:42.813Z,4.30
2023-04-27T16:38:09.264Z,4.17
2023-04-27T16:40:35.802Z,4.67
2023-04-27T16:43:02.942Z,4.45
2023-04-27T16:45:29.570Z,4.06
2023-04-27T16:47:56.136Z,4.15
2023-04-27T16:50:22.707Z,4.31
2023-04-27T16:52:49.887Z,3.98
2023-04-27T16:55:16.701Z,4.63
2023-04-27T16:57:43.146Z,4.40
2023-04-27T17:00:10.570Z,5.93
2023-04-27T17:02:37.332Z,10.41
2023-04-27T17:05:04.351Z,5.44
2023-04-27T17:07:32.647Z,7.55
2023-04-27T17:09:59.813Z,7.43
2023-04-27T17:12:26.784Z,4.99
2023-04-27T17:14:53.379Z,4.75
2023-04-27T17:17:20.049Z,4.46
2023-04-27T17:19:46.765Z,4.31
2023-04-27T17:22:14.779Z,4.27
2023-04-27T17:24:41.296Z,4.00
2023-04-27T17:27:07.820Z,4.00
2023-04-27T17:29:34.327Z,4.27
2023-04-27T17:32:07.991Z,5.01
2023-04-27T17:34:34.488Z,4.50
2023-04-27T17:37:01.497Z,4.61
2023-04-27T17:39:29.991Z,5.60
2023-04-27T17:41:57.055Z,5.14
2023-04-27T17:44:23.694Z,4.60
2023-04-27T17:46:52.191Z,3.89
2023-04-27T17:49:19.387Z,4.32
2023-04-27T17:51:48.158Z,4.67
2023-04-27T17:54:14.708Z,4.96
2023-04-27T17:56:41.794Z,5.01
2023-04-27T17:59:08.961Z,5.04
2023-04-27T18:01:35.676Z,4.77
2023-04-27T18:04:04.220Z,4.89
2023-04-27T18:06:31.999Z,5.21
2023-04-27T18:08:58.526Z,4.88
2023-04-27T18:11:28.885Z,4.51
2023-04-27T18:13:58.095Z,4.46
2023-04-27T18:16:24.914Z,4.38
2023-04-27T18:18:51.558Z,4.03
2023-04-27T18:21:18.015Z,4.31
2023-04-27T18:23:44.877Z,4.61
2023-04-27T18:26:11.755Z,4.51
2023-04-27T18:28:40.103Z,4.20
2023-04-27T18:31:21.536Z,4.30
2023-04-27T18:33:48.153Z,4.17
2023-04-27T18:36:14.714Z,4.11
2023-04-27T18:38:41.278Z,3.99
2023-04-27T18:41:07.904Z,4.04
2023-04-27T18:43:36.570Z,4.04
2023-04-27T18:46:04.585Z,3.94
2023-04-27T18:48:33.612Z,4.28
2023-04-27T18:51:01.051Z,3.96
2023-04-27T18:53:28.242Z,3.53
2023-04-27T18:55:55.109Z,3.66
2023-04-27T18:58:21.736Z,3.88
2023-04-27T19:00:48.272Z,3.73
2023-04-27T19:03:16.794Z,3.95
2023-04-27T19:05:44.076Z,4.18
2023-04-27T19:08:11.772Z,4.02
2023-04-27T19:10:41.569Z,4.14
2023-04-27T19:13:08.803Z,3.89
2023-04-27T19:15:36.501Z,4.12
2023-04-27T19:18:10.481Z,3.96
2023-04-27T19:20:40.651Z,3.64
2023-04-27T19:23:09.594Z,3.77
2023-04-27T19:25:36.521Z,3.90
2023-04-27T19:28:04.010Z,3.94
2023-04-27T19:30:31.468Z,4.29
2023-04-27T19:32:58.175Z,4.25
2023-04-27T19:35:26.364Z,4.25
2023-04-27T19:37:53.076Z,4.46
2023-04-27T19:40:19.550Z,4.70
2023-04-27T19:42:46.007Z,5.11
2023-04-27T19:45:12.700Z,5.10
2023-04-27T19:47:39.710Z,5.56
2023-04-27T19:50:06.855Z,5.05
2023-04-27T19:52:33.376Z,5.25
2023-04-27T19:54:59.967Z,5.88
2023-04-27T19:57:26.701Z,6.26
2023-04-27T19:59:53.187Z,6.65
2023-04-27T20:02:19.801Z,6.46
2023-04-27T20:04:47.058Z,6.77
2023-04-27T20:07:13.796Z,6.65
2023-04-27T20:09:40.372Z,6.75
2023-04-27T20:12:08.101Z,6.67
2023-04-27T20:14:37.611Z,7.19
2023-04-27T20:17:05.858Z,7.06
2023-04-27T20:19:33.824Z,6.94
2023-04-27T20:22:02.902Z,6.88
2023-04-27T20:24:29.819Z,6.50
2023-04-27T20:26:56.251Z,6.48
2023-04-27T20:29:22.908Z,6.45
2023-04-27T20:31:49.632Z,6.48
2023-04-27T20:34:16.391Z,7.06
2023-04-27T20:36:44.225Z,6.83
2023-04-27T20:39:11.913Z,5.84
2023-04-27T20:41:41.775Z,5.86
2023-04-27T20:44:09.305Z,6.34
2023-04-27T20:46:36.541Z,6.04
2023-04-27T20:49:04.645Z,5.78
2023-04-27T20:51:32.951Z,6.04
2023-04-27T20:53:59.757Z,6.02
2023-04-27T20:56:30.504Z,6.31
2023-04-27T20:58:57.538Z,6.38
2023-04-27T21:01:24.138Z,6.36
2023-04-27T21:03:50.875Z,6.20
2023-04-27T21:06:18.082Z,5.66
2023-04-27T21:08:44.708Z,6.46
2023-04-27T21:11:11.917Z,6.01
2023-04-27T21:13:38.378Z,5.67
2023-04-27T21:16:05.527Z,5.92
2023-04-27T21:18:31.995Z,5.99
2023-04-27T21:20:58.915Z,6.49
2023-04-27T21:23:25.707Z,6.32
2023-04-27T21:25:52.209Z,5.70
2023-04-27T21:28:18.863Z,5.77
2023-04-27T21:30:45.441Z,5.31
2023-04-27T21:33:12.526Z,5.65
2023-04-27T21:35:39.083Z,5.85
2023-04-27T21:38:05.896Z,6.01
2023-04-27T21:40:32.354Z,5.66
2023-04-27T21:42:58.848Z,6.13
2023-04-27T21:45:25.256Z,5.97
2023-04-27T21:47:51.975Z,6.17
2023-04-27T21:50:18.703Z,5.87
2023-04-27T21:52:45.468Z,5.42
2023-04-27T21:55:12.167Z,5.74
2023-04-27T21:57:38.688Z,6.32
2023-04-27T22:00:13.387Z,6.38
2023-04-27T22:02:42.493Z,7.30
2023-04-27T22:05:10.083Z,7.60
2023-04-27T22:07:37.733Z,7.64
2023-04-27T22:10:06.041Z,6.95
2023-04-27T22:12:33.395Z,6.53
2023-04-27T22:15:00.372Z,6.94
2023-04-27T22:17:27.687Z,6.75
2023-04-27T22:19:54.711Z,6.82
2023-04-27T22:22:21.219Z,6.06
2023-04-27T22:24:47.792Z,6.80
2023-04-27T22:27:14.267Z,6.48
2023-04-27T22:29:40.827Z,6.59
2023-04-27T22:32:07.581Z,6.43
2023-04-27T22:34:34.172Z,6.29
2023-04-27T22:37:01.981Z,6.42
2023-04-27T22:39:29.797Z,6.58
2023-04-27T22:41:56.428Z,6.12
2023-04-27T22:44:22.919Z,6.08
2023-04-27T22:46:49.402Z,6.65
2023-04-27T22:49:17.182Z,6.28
2023-04-27T22:51:43.751Z,6.36
2023-04-27T22:54:10.483Z,6.34
2023-04-27T22:56:36.970Z,6.07
2023-04-27T22:59:03.586Z,6.26
2023-04-27T23:01:30.198Z,6.27
2023-04-27T23:03:56.932Z,6.28
2023-04-27T23:06:23.467Z,6.63
2023-04-27T23:08:50.267Z,6.00
2023-04-27T23:11:18.723Z,5.77
2023-04-27T23:13:48.106Z,5.63
2023-04-27T23:16:14.877Z,5.61
2023-04-27T23:18:41.794Z,5.50
2023-04-27T23:21:10.121Z,5.50
2023-04-27T23:23:36.573Z,5.69
2023-04-27T23:26:03.132Z,5.70
2023-04-27T23:28:29.591Z,5.76
2023-04-27T23:30:56.157Z,6.15
2023-04-27T23:33:22.816Z,6.10
2023-04-27T23:35:49.360Z,6.12
2023-04-27T23:38:15.897Z,6.36
2023-04-27T23:40:42.349Z,5.93
2023-04-27T23:43:08.782Z,6.56
2023-04-27T23:45:35.216Z,6.00
2023-04-27T23:48:01.719Z,6.39
2023-04-27T23:50:28.214Z,6.53
2023-04-27T23:52:54.638Z,6.26
2023-04-27T23:55:21.265Z,6.39
2023-04-27T23:57:47.878Z,6.28
